createdAt,value
2022-09-14T00:00:16.168Z,6.10
2022-09-14T00:05:17.862Z,6.20
2022-09-14T00:10:19.451Z,5.85
2022-09-14T00:15:21.071Z,5.45
2022-09-14T00:20:22.716Z,6.45
2022-09-14T00:25:26.431Z,6.18
2022-09-14T00:30:28.308Z,6.47
2022-09-14T00:35:29.904Z,6.13
2022-09-14T00:40:31.509Z,6.93
2022-09-14T00:45:33.269Z,5.78
2022-09-14T00:50:35.483Z,6.35
2022-09-14T00:55:37.416Z,5.72
2022-09-14T01:00:39.092Z,5.90
2022-09-14T01:06:17.728Z,5.57
2022-09-14T01:11:25.195Z,5.85
2022-09-14T01:16:55.647Z,5.70
2022-09-14T01:22:07.214Z,5.20
2022-09-14T01:27:26.424Z,5.57
2022-09-14T01:32:37.580Z,5.78
2022-09-14T01:37:47.982Z,6.40
2022-09-14T01:42:55.052Z,5.60
2022-09-14T01:48:07.152Z,5.55
2022-09-14T01:53:17.864Z,5.40
2022-09-14T01:58:37.857Z,5.93
2022-09-14T02:03:49.946Z,6.38
2022-09-14T02:08:52.334Z,5.68
2022-09-14T02:13:54.123Z,5.72
2022-09-14T02:18:56.071Z,5.50
2022-09-14T02:24:00.090Z,5.65
2022-09-14T02:29:01.842Z,5.90
2022-09-14T02:34:11.075Z,5.90
2022-09-14T02:39:33.385Z,5.47
2022-09-14T02:44:52.366Z,5.72
2022-09-14T02:50:16.766Z,5.63
2022-09-14T02:55:21.715Z,5.45
2022-09-14T03:00:23.393Z,5.78
2022-09-14T03:05:25.446Z,6.50
2022-09-14T03:10:27.529Z,5.10
2022-09-14T03:15:29.183Z,6.43
2022-09-14T03:20:32.895Z,5.93
2022-09-14T03:25:38.922Z,5.95
2022-09-14T03:30:40.788Z,5.72
2022-09-14T03:35:42.388Z,5.30
2022-09-14T03:40:44.125Z,6.55
2022-09-14T03:45:45.727Z,6.28
2022-09-14T03:50:47.331Z,5.55
2022-09-14T03:55:49.194Z,5.82
2022-09-14T04:00:51.349Z,7.93
2022-09-14T04:05:56.628Z,5.63
2022-09-14T04:10:58.242Z,6.05
2022-09-14T04:16:00.548Z,6.05
2022-09-14T04:21:08.863Z,6.43
2022-09-14T04:26:16.263Z,5.50
2022-09-14T04:31:18.043Z,6.03
2022-09-14T04:36:22.630Z,5.30
2022-09-14T04:41:25.001Z,6.63
2022-09-14T04:46:29.511Z,6.32
2022-09-14T04:51:33.221Z,5.57
2022-09-14T04:56:37.145Z,5.82
2022-09-14T05:01:42.954Z,7.20
2022-09-14T05:06:44.983Z,6.20
2022-09-14T05:11:47.018Z,6.15
2022-09-14T05:16:48.607Z,5.40
2022-09-14T05:21:50.215Z,6.40
2022-09-14T05:26:52.818Z,6.35
2022-09-14T05:31:56.184Z,6.07
2022-09-14T05:36:57.904Z,6.70
2022-09-14T05:41:59.517Z,6.50
2022-09-14T05:47:01.115Z,6.28
2022-09-14T05:52:03.024Z,6.18
2022-09-14T05:57:04.798Z,6.47
2022-09-14T06:02:06.831Z,5.97
2022-09-14T06:07:18.294Z,5.95
2022-09-14T06:12:20.540Z,6.97
2022-09-14T06:17:22.136Z,6.63
2022-09-14T06:22:23.927Z,7.07
2022-09-14T06:27:25.613Z,7.03
2022-09-14T06:32:30.929Z,7.22
2022-09-14T06:37:32.536Z,7.20
2022-09-14T06:42:34.134Z,6.85
2022-09-14T06:47:37.372Z,6.25
2022-09-14T06:52:40.514Z,7.00
2022-09-14T06:57:43.201Z,8.02
2022-09-14T07:02:45.882Z,7.38
2022-09-14T07:07:53.013Z,6.95
2022-09-14T07:12:55.932Z,7.50
2022-09-14T07:17:59.059Z,7.53
2022-09-14T07:23:00.895Z,7.82
2022-09-14T07:28:02.932Z,7.40
2022-09-14T07:33:05.643Z,7.10
2022-09-14T07:38:07.384Z,6.60
2022-09-14T07:43:10.757Z,6.53
2022-09-14T07:48:12.627Z,7.80
2022-09-14T07:53:14.911Z,7.45
2022-09-14T07:58:16.686Z,8.43
2022-09-14T08:03:18.369Z,8.73
2022-09-14T08:08:21.822Z,8.75
2022-09-14T08:13:23.628Z,10.45
2022-09-14T08:18:25.343Z,10.75
2022-09-14T08:23:27.174Z,13.43
2022-09-14T08:28:28.777Z,12.32
2022-09-14T08:33:31.713Z,11.57
2022-09-14T08:38:33.355Z,10.57
2022-09-14T08:43:35.146Z,11.82
2022-09-14T08:48:48.555Z,11.55
2022-09-14T08:53:53.616Z,11.80
2022-09-14T08:59:18.014Z,11.77
2022-09-14T09:04:24.055Z,11.32
2022-09-14T09:09:46.519Z,13.80
2022-09-14T09:15:00.641Z,12.23
2022-09-14T09:20:06.612Z,11.57
2022-09-14T09:25:20.467Z,13.27
2022-09-14T09:30:22.049Z,13.30
2022-09-14T09:35:26.334Z,13.90
2022-09-14T09:40:42.166Z,14.07
2022-09-14T09:46:07.050Z,15.07
2022-09-14T09:51:17.430Z,16.20
2022-09-14T09:56:24.184Z,17.45
2022-09-14T10:01:34.944Z,18.02
2022-09-14T10:06:42.702Z,19.80
2022-09-14T10:11:46.115Z,18.55
2022-09-14T10:16:47.867Z,20.23
2022-09-14T10:22:26.488Z,22.10
2022-09-14T10:27:50.587Z,21.77
2022-09-14T10:33:04.913Z,22.35
2022-09-14T10:38:33.879Z,21.73
2022-09-14T10:43:57.357Z,24.13
2022-09-14T10:49:24.304Z,21.95
2022-09-14T10:54:48.504Z,21.60
2022-09-14T11:00:03.294Z,20.80
2022-09-14T11:05:34.461Z,22.95
2022-09-14T11:11:17.890Z,21.08
2022-09-14T11:16:40.753Z,22.85
2022-09-14T11:22:03.529Z,24.20
2022-09-14T11:27:32.341Z,23.17
2022-09-14T11:32:40.497Z,24.25
2022-09-14T11:38:00.840Z,24.90
2022-09-14T11:43:17.543Z,25.50
2022-09-14T11:48:45.157Z,26.05
2022-09-14T11:53:47.372Z,25.75
2022-09-14T11:58:49.798Z,25.42
2022-09-14T12:04:02.165Z,25.48
2022-09-14T12:09:29.876Z,24.40
2022-09-14T12:14:36.666Z,24.92
2022-09-14T12:19:39.205Z,23.13
2022-09-14T12:24:40.861Z,23.77
2022-09-14T12:29:42.809Z,23.45
2022-09-14T12:34:44.439Z,24.90
2022-09-14T12:40:32.442Z,24.05
2022-09-14T12:46:18.498Z,22.75
2022-09-14T12:51:32.696Z,21.77
2022-09-14T12:56:37.078Z,21.80
2022-09-14T13:02:10.236Z,22.75
2022-09-14T13:07:17.971Z,20.83
2022-09-14T13:12:37.530Z,20.55
2022-09-14T13:17:56.499Z,19.42
2022-09-14T13:22:58.528Z,19.17
2022-09-14T13:28:05.940Z,22.23
2022-09-14T13:33:15.463Z,20.85
2022-09-14T13:38:28.474Z,22.25
2022-09-14T13:43:30.352Z,21.95
2022-09-14T13:48:32.058Z,23.30
2022-09-14T13:53:39.170Z,27.50
2022-09-14T13:58:40.847Z,22.55
2022-09-14T14:03:49.099Z,24.25
2022-09-14T14:09:00.608Z,22.88
2022-09-14T14:14:22.391Z,23.70
2022-09-14T14:19:31.133Z,23.88
2022-09-14T14:24:32.766Z,25.02
2022-09-14T14:29:34.409Z,26.70
2022-09-14T14:34:36.440Z,26.88
2022-09-14T14:39:39.047Z,29.38
2022-09-14T14:44:42.283Z,28.70
2022-09-14T14:49:43.997Z,27.17
2022-09-14T14:54:45.641Z,27.98
2022-09-14T14:59:47.264Z,28.02
2022-09-14T15:04:48.999Z,29.00
2022-09-14T15:09:50.637Z,29.42
2022-09-14T15:14:52.248Z,31.30
2022-09-14T15:19:53.869Z,29.58
2022-09-14T15:24:55.459Z,34.85
2022-09-14T15:29:57.476Z,33.30
2022-09-14T15:34:59.099Z,32.58
2022-09-14T15:40:00.893Z,30.30
2022-09-14T15:45:03.819Z,28.00
2022-09-14T15:50:06.178Z,29.88
2022-09-14T15:55:10.313Z,27.90
2022-09-14T16:00:13.792Z,28.20
2022-09-14T16:05:16.270Z,30.25
2022-09-14T16:10:17.872Z,29.27
2022-09-14T16:15:19.546Z,30.42
2022-09-14T16:20:21.719Z,26.90
2022-09-14T16:25:23.350Z,31.00
2022-09-14T16:30:24.960Z,30.30
2022-09-14T16:35:26.571Z,27.65
2022-09-14T16:40:28.259Z,28.88
2022-09-14T16:45:29.964Z,27.80
2022-09-14T16:50:31.808Z,29.23
2022-09-14T16:55:33.447Z,27.80
2022-09-14T17:00:35.531Z,27.63
2022-09-14T17:05:37.154Z,28.20
2022-09-14T17:10:38.781Z,30.50
2022-09-14T17:15:40.417Z,28.38
2022-09-14T17:20:52.619Z,27.30
2022-09-14T17:25:55.285Z,26.17
2022-09-14T17:30:59.499Z,26.30
2022-09-14T17:36:02.649Z,30.35
2022-09-14T17:41:07.181Z,29.52
2022-09-14T17:46:14.201Z,30.88
2022-09-14T17:51:21.152Z,25.35
2022-09-14T17:56:24.634Z,21.55
2022-09-14T18:01:26.292Z,19.50
2022-09-14T18:06:31.282Z,18.77
2022-09-14T18:11:33.481Z,16.27
2022-09-14T18:16:35.127Z,15.27
2022-09-14T18:21:37.045Z,14.75
2022-09-14T18:26:38.687Z,14.13
2022-09-14T18:31:40.448Z,13.13
2022-09-14T18:36:42.128Z,13.18
2022-09-14T18:41:44.208Z,10.55
2022-09-14T18:46:46.891Z,10.65
2022-09-14T18:51:48.798Z,8.05
2022-09-14T18:56:51.133Z,7.88
2022-09-14T19:01:52.787Z,7.80
2022-09-14T19:06:54.421Z,8.98
2022-09-14T19:11:56.046Z,6.13
2022-09-14T19:16:58.459Z,3.55
2022-09-14T19:22:00.050Z,4.20
2022-09-14T19:27:01.725Z,2.85
2022-09-14T19:32:03.379Z,2.88
2022-09-14T19:37:05.189Z,3.03
2022-09-14T19:42:06.817Z,2.60
2022-09-14T19:47:08.437Z,2.22
2022-09-14T19:52:10.048Z,2.47
2022-09-14T19:57:11.765Z,2.72
2022-09-14T20:02:13.801Z,2.85
2022-09-14T20:07:15.542Z,2.92
2022-09-14T20:12:17.128Z,3.05
2022-09-14T20:17:18.774Z,3.17
2022-09-14T20:22:20.401Z,2.85
2022-09-14T20:27:22.143Z,3.53
2022-09-14T20:32:25.170Z,4.07
2022-09-14T20:37:28.577Z,3.60
2022-09-14T20:42:30.174Z,3.47
2022-09-14T20:47:31.793Z,3.95
2022-09-14T20:52:33.381Z,4.32
2022-09-14T20:57:34.972Z,5.03
2022-09-14T21:02:37.638Z,5.40
2022-09-14T21:07:39.255Z,4.32
2022-09-14T21:12:40.912Z,5.20
2022-09-14T21:17:42.513Z,3.10
2022-09-14T21:22:45.411Z,1.83
2022-09-14T21:27:47.027Z,1.50
2022-09-14T21:32:50.173Z,0.90
2022-09-14T21:37:51.817Z,1.13
2022-09-14T21:42:54.431Z,1.58
2022-09-14T21:47:56.007Z,2.08
2022-09-14T21:52:57.679Z,1.65
2022-09-14T21:57:59.316Z,1.20
2022-09-14T22:03:01.070Z,1.10
2022-09-14T22:08:03.088Z,1.02
2022-09-14T22:13:04.685Z,0.93
2022-09-14T22:18:07.482Z,1.23
2022-09-14T22:23:09.280Z,1.90
2022-09-14T22:28:10.917Z,2.40
2022-09-14T22:33:12.509Z,2.58
2022-09-14T22:38:14.646Z,2.67
2022-09-14T22:43:16.264Z,4.15
2022-09-14T22:48:18.794Z,3.45
2022-09-14T22:53:21.619Z,4.25
2022-09-14T22:58:26.453Z,3.92
2022-09-14T23:03:28.052Z,5.70
2022-09-14T23:08:30.164Z,5.07
2022-09-14T23:13:34.762Z,4.68
2022-09-14T23:18:36.362Z,4.85
2022-09-14T23:23:41.000Z,4.15
2022-09-14T23:28:42.627Z,3.50
2022-09-14T23:33:44.224Z,3.20
2022-09-14T23:38:48.128Z,3.25
2022-09-14T23:43:50.874Z,3.70
2022-09-14T23:48:52.689Z,4.20
2022-09-14T23:53:54.413Z,4.13
2022-09-14T23:58:56.395Z,5.10
